KBTR/BTR METAR and TAF weather

Enter ICAO airport designator
Station Type Date Time Source
KBTR METAR 2022/06/25 22:06 UTC NOAA

KBTR 252206Z 13011G15KT 10SM TS BKN055 33/23 A2996 RMK AO2 LTG DSNT N-SE TSB00 T03330228


Station Type Date Time Source
KBTR Decoded METAR 2022/06/25 22:06 UTC NOAA

BATON ROUGE METRO RYAN FIELD, LA, United States (KBTR) 30-32N 91-09W 21M
Jun 25, 2022 - 06:06 PM EDT / 2022.06.25 2206 UTC
Wind: from the SE (130 degrees) at 13 MPH (11 KT) gusting to 17 MPH (15 KT):0
Visibility: 10 mile(s):0
Sky conditions: mostly cloudy
Weather: thunder; Lightning observed
Temperature: 91.9 F (33.3 C)
Heat index: 100.6 F (38.1 C):1
Dew Point: 73.0 F (22.8 C)
Relative Humidity: 54%
Pressure (altimeter): 29.96 in. Hg (1014 hPa)
ob: KBTR 252206Z 13011G15KT 10SM TS BKN055 33/23 A2996 RMK AO2 LTG DSNT N-SE TSB00 T03330228
cycle: 22

Station Type Date Time Source
KBTR TAF 2022/06/25 18:22 UTC NOAA

TAF KBTR 251720Z 2518/2618 30005KT P6SM SCT250
FM252100 32007KT P6SM VCTS SCT100CB
FM252200 27006KT P6SM VCTS SCT100CB
FM252300 24007KT P6SM VCTS BKN100CB
FM260000 21008KT P6SM VCTS BKN100CB
FM260100 01007KT P6SM BKN250

Example: see airport list